sensor_id;sensor_type;location;lat;lon;timestamp;P1;durP1;ratioP1;P2;durP2;ratioP2
82705;SDS011;72428;41.978;21.464;2024-01-15T00:00:43;324.20;;;154.20;;
82705;SDS011;72428;41.978;21.464;2024-01-15T00:03:10;310.35;;;153.55;;
82705;SDS011;72428;41.978;21.464;2024-01-15T00:05:36;301.33;;;144.48;;
82705;SDS011;72428;41.978;21.464;2024-01-15T00:08:02;289.23;;;135.48;;
82705;SDS011;72428;41.978;21.464;2024-01-15T00:10:28;304.38;;;146.30;;
82705;SDS011;72428;41.978;21.464;2024-01-15T00:12:54;303.30;;;143.75;;
82705;SDS011;72428;41.978;21.464;2024-01-15T00:15:20;290.98;;;138.88;;
82705;SDS011;72428;41.978;21.464;2024-01-15T00:17:47;284.00;;;138.80;;
82705;SDS011;72428;41.978;21.464;2024-01-15T00:20:13;258.92;;;127.20;;
82705;SDS011;72428;41.978;21.464;2024-01-15T00:22:39;214.13;;;104.32;;
82705;SDS011;72428;41.978;21.464;2024-01-15T00:25:05;204.68;;;98.97;;
82705;SDS011;72428;41.978;21.464;2024-01-15T00:27:31;203.43;;;98.70;;
82705;SDS011;72428;41.978;21.464;2024-01-15T00:29:57;207.82;;;99.25;;
82705;SDS011;72428;41.978;21.464;2024-01-15T00:32:23;195.27;;;95.93;;
82705;SDS011;72428;41.978;21.464;2024-01-15T00:34:50;208.63;;;96.38;;
82705;SDS011;72428;41.978;21.464;2024-01-15T00:37:16;177.45;;;89.85;;
82705;SDS011;72428;41.978;21.464;2024-01-15T00:39:42;184.88;;;86.78;;
82705;SDS011;72428;41.978;21.464;2024-01-15T00:42:08;201.02;;;97.55;;
82705;SDS011;72428;41.978;21.464;2024-01-15T00:44:34;187.90;;;91.72;;
82705;SDS011;72428;41.978;21.464;2024-01-15T00:47:02;129.77;;;67.07;;
82705;SDS011;72428;41.978;21.464;2024-01-15T00:49:28;160.55;;;80.70;;
82705;SDS011;72428;41.978;21.464;2024-01-15T00:51:54;144.23;;;72.85;;
82705;SDS011;72428;41.978;21.464;2024-01-15T00:54:20;155.23;;;72.45;;
82705;SDS011;72428;41.978;21.464;2024-01-15T00:56:46;156.00;;;72.00;;
82705;SDS011;72428;41.978;21.464;2024-01-15T00:59:13;181.18;;;87.55;;
82705;SDS011;72428;41.978;21.464;2024-01-15T01:01:40;183.77;;;88.90;;
82705;SDS011;72428;41.978;21.464;2024-01-15T01:04:08;175.38;;;85.85;;
82705;SDS011;72428;41.978;21.464;2024-01-15T01:06:34;169.57;;;86.10;;
82705;SDS011;72428;41.978;21.464;2024-01-15T01:09:00;173.48;;;83.78;;
82705;SDS011;72428;41.978;21.464;2024-01-15T01:11:27;169.52;;;87.28;;
82705;SDS011;72428;41.978;21.464;2024-01-15T01:13:53;187.73;;;89.82;;
82705;SDS011;72428;41.978;21.464;2024-01-15T01:16:19;186.90;;;89.15;;
82705;SDS011;72428;41.978;21.464;2024-01-15T01:18:45;193.98;;;94.22;;
82705;SDS011;72428;41.978;21.464;2024-01-15T01:21:11;187.23;;;90.15;;
82705;SDS011;72428;41.978;21.464;2024-01-15T01:23:37;171.05;;;83.13;;
82705;SDS011;72428;41.978;21.464;2024-01-15T01:26:03;178.55;;;85.55;;
82705;SDS011;72428;41.978;21.464;2024-01-15T01:28:29;186.70;;;91.10;;
82705;SDS011;72428;41.978;21.464;2024-01-15T01:30:55;219.00;;;104.28;;
82705;SDS011;72428;41.978;21.464;2024-01-15T01:33:21;205.57;;;100.57;;
82705;SDS011;72428;41.978;21.464;2024-01-15T01:35:47;196.35;;;99.03;;
82705;SDS011;72428;41.978;21.464;2024-01-15T01:38:13;200.00;;;100.32;;
82705;SDS011;72428;41.978;21.464;2024-01-15T01:40:40;216.15;;;102.13;;
82705;SDS011;72428;41.978;21.464;2024-01-15T01:43:06;208.30;;;101.88;;
82705;SDS011;72428;41.978;21.464;2024-01-15T01:45:32;217.38;;;103.00;;
82705;SDS011;72428;41.978;21.464;2024-01-15T01:47:58;228.15;;;108.75;;
82705;SDS011;72428;41.978;21.464;2024-01-15T01:50:24;230.15;;;108.35;;
82705;SDS011;72428;41.978;21.464;2024-01-15T01:52:50;212.55;;;100.97;;
82705;SDS011;72428;41.978;21.464;2024-01-15T01:55:16;212.70;;;103.32;;
82705;SDS011;72428;41.978;21.464;2024-01-15T01:57:42;224.13;;;107.55;;
82705;SDS011;72428;41.978;21.464;2024-01-15T02:00:09;217.75;;;105.90;;
82705;SDS011;72428;41.978;21.464;2024-01-15T02:02:36;220.82;;;102.63;;
82705;SDS011;72428;41.978;21.464;2024-01-15T02:05:03;223.52;;;106.75;;
82705;SDS011;72428;41.978;21.464;2024-01-15T02:07:29;213.65;;;107.40;;
82705;SDS011;72428;41.978;21.464;2024-01-15T02:09:56;215.10;;;103.95;;
82705;SDS011;72428;41.978;21.464;2024-01-15T02:12:22;217.48;;;102.40;;
82705;SDS011;72428;41.978;21.464;2024-01-15T02:14:48;206.20;;;98.78;;
82705;SDS011;72428;41.978;21.464;2024-01-15T02:17:14;210.52;;;104.28;;
82705;SDS011;72428;41.978;21.464;2024-01-15T02:19:40;220.25;;;112.03;;
82705;SDS011;72428;41.978;21.464;2024-01-15T02:22:06;209.68;;;97.90;;
82705;SDS011;72428;41.978;21.464;2024-01-15T02:24:33;219.27;;;107.72;;
82705;SDS011;72428;41.978;21.464;2024-01-15T02:26:59;216.98;;;107.75;;
82705;SDS011;72428;41.978;21.464;2024-01-15T02:29:25;231.45;;;112.63;;
82705;SDS011;72428;41.978;21.464;2024-01-15T02:31:51;236.70;;;108.32;;
82705;SDS011;72428;41.978;21.464;2024-01-15T02:34:17;225.98;;;108.95;;
82705;SDS011;72428;41.978;21.464;2024-01-15T02:36:43;237.52;;;111.95;;
82705;SDS011;72428;41.978;21.464;2024-01-15T02:39:09;220.20;;;109.95;;
82705;SDS011;72428;41.978;21.464;2024-01-15T02:41:35;218.00;;;106.03;;
82705;SDS011;72428;41.978;21.464;2024-01-15T02:44:02;225.02;;;103.85;;
82705;SDS011;72428;41.978;21.464;2024-01-15T02:46:28;232.75;;;117.05;;
82705;SDS011;72428;41.978;21.464;2024-01-15T02:48:54;57.67;;;31.38;;
82705;SDS011;72428;41.978;21.464;2024-01-15T02:51:20;213.90;;;102.97;;
82705;SDS011;72428;41.978;21.464;2024-01-15T02:53:46;219.60;;;109.53;;
82705;SDS011;72428;41.978;21.464;2024-01-15T02:56:12;220.23;;;105.40;;
82705;SDS011;72428;41.978;21.464;2024-01-15T02:58:38;216.50;;;108.43;;
82705;SDS011;72428;41.978;21.464;2024-01-15T03:01:04;182.20;;;82.57;;
82705;SDS011;72428;41.978;21.464;2024-01-15T03:03:30;208.05;;;100.65;;
82705;SDS011;72428;41.978;21.464;2024-01-15T03:05:58;222.25;;;106.15;;
82705;SDS011;72428;41.978;21.464;2024-01-15T03:08:24;212.98;;;104.72;;
82705;SDS011;72428;41.978;21.464;2024-01-15T03:10:50;208.73;;;98.90;;
82705;SDS011;72428;41.978;21.464;2024-01-15T03:13:16;200.25;;;102.38;;
82705;SDS011;72428;41.978;21.464;2024-01-15T03:15:44;175.45;;;80.40;;
82705;SDS011;72428;41.978;21.464;2024-01-15T03:18:10;208.40;;;96.90;;
82705;SDS011;72428;41.978;21.464;2024-01-15T03:20:36;223.13;;;102.85;;
82705;SDS011;72428;41.978;21.464;2024-01-15T03:23:02;183.75;;;84.53;;
82705;SDS011;72428;41.978;21.464;2024-01-15T03:25:28;195.57;;;94.38;;
82705;SDS011;72428;41.978;21.464;2024-01-15T03:27:54;183.73;;;92.15;;
82705;SDS011;72428;41.978;21.464;2024-01-15T03:30:20;144.77;;;67.07;;
82705;SDS011;72428;41.978;21.464;2024-01-15T03:32:46;180.82;;;85.25;;
82705;SDS011;72428;41.978;21.464;2024-01-15T03:35:15;183.13;;;93.78;;
82705;SDS011;72428;41.978;21.464;2024-01-15T03:37:41;183.05;;;91.00;;
82705;SDS011;72428;41.978;21.464;2024-01-15T03:40:07;172.38;;;81.70;;
82705;SDS011;72428;41.978;21.464;2024-01-15T03:42:34;177.35;;;90.00;;
82705;SDS011;72428;41.978;21.464;2024-01-15T03:45:00;107.35;;;56.10;;
82705;SDS011;72428;41.978;21.464;2024-01-15T03:47:26;177.05;;;89.88;;
82705;SDS011;72428;41.978;21.464;2024-01-15T03:49:52;175.43;;;85.18;;
82705;SDS011;72428;41.978;21.464;2024-01-15T03:52:18;167.60;;;86.70;;
82705;SDS011;72428;41.978;21.464;2024-01-15T03:54:44;181.65;;;82.40;;
82705;SDS011;72428;41.978;21.464;2024-01-15T03:57:10;148.88;;;71.40;;
82705;SDS011;72428;41.978;21.464;2024-01-15T03:59:36;153.27;;;76.45;;
82705;SDS011;72428;41.978;21.464;2024-01-15T04:02:02;151.45;;;72.00;;
82705;SDS011;72428;41.978;21.464;2024-01-15T04:04:29;147.85;;;71.18;;
82705;SDS011;72428;41.978;21.464;2024-01-15T04:06:55;133.50;;;69.85;;
82705;SDS011;72428;41.978;21.464;2024-01-15T04:09:21;168.45;;;84.75;;
82705;SDS011;72428;41.978;21.464;2024-01-15T04:11:47;142.95;;;67.45;;
82705;SDS011;72428;41.978;21.464;2024-01-15T04:14:13;168.45;;;80.60;;
82705;SDS011;72428;41.978;21.464;2024-01-15T04:16:39;152.27;;;76.45;;
82705;SDS011;72428;41.978;21.464;2024-01-15T04:19:06;157.88;;;76.75;;
82705;SDS011;72428;41.978;21.464;2024-01-15T04:21:32;140.98;;;71.97;;
82705;SDS011;72428;41.978;21.464;2024-01-15T04:23:58;145.05;;;74.68;;
82705;SDS011;72428;41.978;21.464;2024-01-15T04:26:24;140.13;;;68.63;;
82705;SDS011;72428;41.978;21.464;2024-01-15T04:28:50;131.48;;;66.38;;
82705;SDS011;72428;41.978;21.464;2024-01-15T04:31:20;140.27;;;67.30;;
82705;SDS011;72428;41.978;21.464;2024-01-15T04:33:47;137.68;;;66.78;;
82705;SDS011;72428;41.978;21.464;2024-01-15T04:36:13;149.07;;;70.50;;
82705;SDS011;72428;41.978;21.464;2024-01-15T04:38:39;141.65;;;67.57;;
82705;SDS011;72428;41.978;21.464;2024-01-15T04:41:05;136.05;;;67.10;;
82705;SDS011;72428;41.978;21.464;2024-01-15T04:43:31;127.72;;;65.47;;
82705;SDS011;72428;41.978;21.464;2024-01-15T04:45:57;134.65;;;67.90;;
82705;SDS011;72428;41.978;21.464;2024-01-15T04:48:24;149.70;;;71.68;;
82705;SDS011;72428;41.978;21.464;2024-01-15T04:50:50;138.18;;;70.75;;
82705;SDS011;72428;41.978;21.464;2024-01-15T04:53:16;143.45;;;70.85;;
82705;SDS011;72428;41.978;21.464;2024-01-15T04:55:42;140.40;;;69.18;;
82705;SDS011;72428;41.978;21.464;2024-01-15T04:58:09;126.25;;;61.38;;
82705;SDS011;72428;41.978;21.464;2024-01-15T05:00:35;142.30;;;65.90;;
82705;SDS011;72428;41.978;21.464;2024-01-15T05:03:01;136.70;;;64.47;;
82705;SDS011;72428;41.978;21.464;2024-01-15T05:05:27;133.00;;;64.25;;
82705;SDS011;72428;41.978;21.464;2024-01-15T05:07:53;146.75;;;68.38;;
82705;SDS011;72428;41.978;21.464;2024-01-15T05:10:19;131.73;;;67.38;;
82705;SDS011;72428;41.978;21.464;2024-01-15T05:12:45;125.05;;;66.80;;
82705;SDS011;72428;41.978;21.464;2024-01-15T05:15:11;135.68;;;67.22;;
82705;SDS011;72428;41.978;21.464;2024-01-15T05:17:37;144.35;;;69.65;;
82705;SDS011;72428;41.978;21.464;2024-01-15T05:20:03;124.68;;;59.38;;
82705;SDS011;72428;41.978;21.464;2024-01-15T05:22:29;133.07;;;61.25;;
82705;SDS011;72428;41.978;21.464;2024-01-15T05:24:56;111.28;;;55.40;;
82705;SDS011;72428;41.978;21.464;2024-01-15T05:27:22;131.95;;;67.35;;
82705;SDS011;72428;41.978;21.464;2024-01-15T05:29:48;140.43;;;69.38;;
82705;SDS011;72428;41.978;21.464;2024-01-15T05:32:14;129.68;;;64.13;;
82705;SDS011;72428;41.978;21.464;2024-01-15T05:34:40;137.38;;;67.72;;
82705;SDS011;72428;41.978;21.464;2024-01-15T05:37:06;143.18;;;67.10;;
82705;SDS011;72428;41.978;21.464;2024-01-15T05:39:32;132.65;;;65.20;;
82705;SDS011;72428;41.978;21.464;2024-01-15T05:41:58;135.10;;;61.80;;
82705;SDS011;72428;41.978;21.464;2024-01-15T05:44:25;133.18;;;67.70;;
82705;SDS011;72428;41.978;21.464;2024-01-15T05:46:51;141.20;;;68.82;;
82705;SDS011;72428;41.978;21.464;2024-01-15T05:49:17;136.77;;;65.57;;
82705;SDS011;72428;41.978;21.464;2024-01-15T05:51:43;87.18;;;37.35;;
82705;SDS011;72428;41.978;21.464;2024-01-15T05:54:09;125.78;;;67.35;;
82705;SDS011;72428;41.978;21.464;2024-01-15T05:56:35;118.88;;;61.60;;
82705;SDS011;72428;41.978;21.464;2024-01-15T05:59:02;117.93;;;60.30;;
82705;SDS011;72428;41.978;21.464;2024-01-15T06:01:28;127.43;;;62.00;;
82705;SDS011;72428;41.978;21.464;2024-01-15T06:03:54;129.57;;;63.40;;
82705;SDS011;72428;41.978;21.464;2024-01-15T06:06:20;137.30;;;66.20;;
82705;SDS011;72428;41.978;21.464;2024-01-15T06:08:46;130.68;;;63.97;;
82705;SDS011;72428;41.978;21.464;2024-01-15T06:11:13;141.13;;;72.15;;
82705;SDS011;72428;41.978;21.464;2024-01-15T06:13:39;140.02;;;67.05;;
82705;SDS011;72428;41.978;21.464;2024-01-15T06:16:12;165.63;;;77.20;;
82705;SDS011;72428;41.978;21.464;2024-01-15T06:18:39;188.63;;;83.93;;
82705;SDS011;72428;41.978;21.464;2024-01-15T06:21:05;180.98;;;83.25;;
82705;SDS011;72428;41.978;21.464;2024-01-15T06:23:31;171.13;;;80.97;;
82705;SDS011;72428;41.978;21.464;2024-01-15T06:25:57;178.13;;;82.88;;
82705;SDS011;72428;41.978;21.464;2024-01-15T06:28:23;142.98;;;72.82;;
82705;SDS011;72428;41.978;21.464;2024-01-15T06:30:49;158.27;;;78.45;;
82705;SDS011;72428;41.978;21.464;2024-01-15T06:33:15;168.98;;;79.65;;
82705;SDS011;72428;41.978;21.464;2024-01-15T06:35:41;170.20;;;82.40;;
82705;SDS011;72428;41.978;21.464;2024-01-15T06:38:07;172.63;;;85.32;;
82705;SDS011;72428;41.978;21.464;2024-01-15T06:40:33;147.15;;;74.60;;
82705;SDS011;72428;41.978;21.464;2024-01-15T06:42:59;167.50;;;76.50;;
82705;SDS011;72428;41.978;21.464;2024-01-15T06:45:25;168.63;;;80.38;;
82705;SDS011;72428;41.978;21.464;2024-01-15T06:47:51;155.10;;;75.47;;
82705;SDS011;72428;41.978;21.464;2024-01-15T06:50:17;147.90;;;76.85;;
82705;SDS011;72428;41.978;21.464;2024-01-15T06:52:43;152.40;;;78.72;;
82705;SDS011;72428;41.978;21.464;2024-01-15T06:55:09;142.68;;;73.60;;
82705;SDS011;72428;41.978;21.464;2024-01-15T06:57:36;141.60;;;71.38;;
82705;SDS011;72428;41.978;21.464;2024-01-15T07:00:02;157.27;;;79.32;;
82705;SDS011;72428;41.978;21.464;2024-01-15T07:02:32;155.93;;;77.75;;
82705;SDS011;72428;41.978;21.464;2024-01-15T07:04:58;154.20;;;76.90;;
82705;SDS011;72428;41.978;21.464;2024-01-15T07:07:24;162.27;;;81.35;;
82705;SDS011;72428;41.978;21.464;2024-01-15T07:09:54;162.98;;;80.43;;
82705;SDS011;72428;41.978;21.464;2024-01-15T07:12:20;162.27;;;80.57;;
82705;SDS011;72428;41.978;21.464;2024-01-15T07:14:46;168.75;;;79.38;;
82705;SDS011;72428;41.978;21.464;2024-01-15T07:17:12;165.27;;;83.40;;
82705;SDS011;72428;41.978;21.464;2024-01-15T07:19:38;167.90;;;80.85;;
82705;SDS011;72428;41.978;21.464;2024-01-15T07:22:04;170.23;;;86.00;;
82705;SDS011;72428;41.978;21.464;2024-01-15T07:24:30;160.18;;;83.57;;
82705;SDS011;72428;41.978;21.464;2024-01-15T07:26:56;93.45;;;49.55;;
82705;SDS011;72428;41.978;21.464;2024-01-15T07:29:22;169.77;;;82.95;;
82705;SDS011;72428;41.978;21.464;2024-01-15T07:31:51;173.32;;;84.70;;
82705;SDS011;72428;41.978;21.464;2024-01-15T07:34:18;157.63;;;80.78;;
82705;SDS011;72428;41.978;21.464;2024-01-15T07:36:44;163.75;;;84.57;;
82705;SDS011;72428;41.978;21.464;2024-01-15T07:39:11;194.15;;;90.57;;
82705;SDS011;72428;41.978;21.464;2024-01-15T07:41:37;161.23;;;85.75;;
82705;SDS011;72428;41.978;21.464;2024-01-15T07:44:03;181.35;;;89.22;;
82705;SDS011;72428;41.978;21.464;2024-01-15T07:46:29;181.57;;;86.65;;
82705;SDS011;72428;41.978;21.464;2024-01-15T07:48:55;174.15;;;86.28;;
82705;SDS011;72428;41.978;21.464;2024-01-15T07:51:23;178.60;;;86.53;;
82705;SDS011;72428;41.978;21.464;2024-01-15T07:53:49;182.90;;;97.72;;
82705;SDS011;72428;41.978;21.464;2024-01-15T07:56:15;187.30;;;95.75;;
82705;SDS011;72428;41.978;21.464;2024-01-15T07:58:42;172.48;;;81.97;;
82705;SDS011;72428;41.978;21.464;2024-01-15T08:01:08;197.43;;;103.13;;
82705;SDS011;72428;41.978;21.464;2024-01-15T08:03:34;198.40;;;103.85;;
82705;SDS011;72428;41.978;21.464;2024-01-15T08:06:00;198.25;;;102.78;;
82705;SDS011;72428;41.978;21.464;2024-01-15T08:08:26;202.27;;;104.07;;
82705;SDS011;72428;41.978;21.464;2024-01-15T08:10:52;196.57;;;98.70;;
82705;SDS011;72428;41.978;21.464;2024-01-15T08:13:18;198.95;;;103.10;;
82705;SDS011;72428;41.978;21.464;2024-01-15T08:15:45;190.55;;;97.68;;
82705;SDS011;72428;41.978;21.464;2024-01-15T08:18:11;191.90;;;97.45;;
82705;SDS011;72428;41.978;21.464;2024-01-15T08:20:38;199.45;;;95.25;;
82705;SDS011;72428;41.978;21.464;2024-01-15T08:23:04;192.88;;;98.28;;
82705;SDS011;72428;41.978;21.464;2024-01-15T08:25:30;179.52;;;86.45;;
82705;SDS011;72428;41.978;21.464;2024-01-15T08:27:56;179.55;;;91.32;;
82705;SDS011;72428;41.978;21.464;2024-01-15T08:30:23;171.75;;;90.90;;
82705;SDS011;72428;41.978;21.464;2024-01-15T08:32:55;168.88;;;86.88;;
82705;SDS011;72428;41.978;21.464;2024-01-15T08:35:22;174.65;;;89.90;;
82705;SDS011;72428;41.978;21.464;2024-01-15T08:37:51;165.13;;;81.60;;
82705;SDS011;72428;41.978;21.464;2024-01-15T08:40:18;168.82;;;85.65;;
82705;SDS011;72428;41.978;21.464;2024-01-15T08:42:44;166.70;;;84.20;;
82705;SDS011;72428;41.978;21.464;2024-01-15T08:45:11;156.43;;;79.38;;
82705;SDS011;72428;41.978;21.464;2024-01-15T08:47:37;170.77;;;85.00;;
82705;SDS011;72428;41.978;21.464;2024-01-15T08:50:04;162.80;;;87.70;;
82705;SDS011;72428;41.978;21.464;2024-01-15T08:52:30;153.27;;;77.75;;
82705;SDS011;72428;41.978;21.464;2024-01-15T08:54:56;155.93;;;80.93;;
82705;SDS011;72428;41.978;21.464;2024-01-15T08:57:22;162.95;;;86.00;;
82705;SDS011;72428;41.978;21.464;2024-01-15T08:59:49;159.55;;;84.05;;
82705;SDS011;72428;41.978;21.464;2024-01-15T09:02:16;159.38;;;86.50;;
82705;SDS011;72428;41.978;21.464;2024-01-15T09:04:42;134.30;;;69.05;;
82705;SDS011;72428;41.978;21.464;2024-01-15T09:07:08;170.13;;;90.68;;
82705;SDS011;72428;41.978;21.464;2024-01-15T09:09:34;161.27;;;79.55;;
82705;SDS011;72428;41.978;21.464;2024-01-15T09:12:01;172.60;;;89.38;;
82705;SDS011;72428;41.978;21.464;2024-01-15T09:14:27;166.00;;;79.80;;
82705;SDS011;72428;41.978;21.464;2024-01-15T09:16:54;153.52;;;76.03;;
82705;SDS011;72428;41.978;21.464;2024-01-15T09:19:21;161.50;;;79.18;;
82705;SDS011;72428;41.978;21.464;2024-01-15T09:21:47;145.73;;;70.97;;
82705;SDS011;72428;41.978;21.464;2024-01-15T09:24:13;157.43;;;79.43;;
82705;SDS011;72428;41.978;21.464;2024-01-15T09:26:39;159.20;;;83.57;;
82705;SDS011;72428;41.978;21.464;2024-01-15T09:29:05;140.38;;;70.90;;
82705;SDS011;72428;41.978;21.464;2024-01-15T09:31:31;146.52;;;79.05;;
82705;SDS011;72428;41.978;21.464;2024-01-15T09:33:57;153.85;;;79.38;;
82705;SDS011;72428;41.978;21.464;2024-01-15T09:36:25;135.88;;;74.68;;
82705;SDS011;72428;41.978;21.464;2024-01-15T09:38:51;137.60;;;73.57;;
82705;SDS011;72428;41.978;21.464;2024-01-15T09:41:17;135.88;;;77.28;;
82705;SDS011;72428;41.978;21.464;2024-01-15T09:43:44;152.90;;;76.28;;
82705;SDS011;72428;41.978;21.464;2024-01-15T09:46:11;142.80;;;74.40;;
82705;SDS011;72428;41.978;21.464;2024-01-15T09:48:38;141.00;;;72.28;;
82705;SDS011;72428;41.978;21.464;2024-01-15T09:51:04;135.55;;;74.40;;
82705;SDS011;72428;41.978;21.464;2024-01-15T09:53:33;146.73;;;76.05;;
82705;SDS011;72428;41.978;21.464;2024-01-15T09:55:59;133.20;;;72.40;;
82705;SDS011;72428;41.978;21.464;2024-01-15T09:58:26;147.88;;;73.55;;
82705;SDS011;72428;41.978;21.464;2024-01-15T10:00:54;143.80;;;72.85;;
82705;SDS011;72428;41.978;21.464;2024-01-15T10:03:21;130.00;;;68.28;;
82705;SDS011;72428;41.978;21.464;2024-01-15T10:05:47;136.82;;;70.40;;
82705;SDS011;72428;41.978;21.464;2024-01-15T10:08:16;156.88;;;74.00;;
82705;SDS011;72428;41.978;21.464;2024-01-15T10:10:42;144.43;;;72.30;;
82705;SDS011;72428;41.978;21.464;2024-01-15T10:13:08;139.07;;;70.65;;
82705;SDS011;72428;41.978;21.464;2024-01-15T10:15:35;147.73;;;70.40;;
82705;SDS011;72428;41.978;21.464;2024-01-15T10:18:02;152.75;;;72.72;;
82705;SDS011;72428;41.978;21.464;2024-01-15T10:20:28;150.40;;;75.28;;
82705;SDS011;72428;41.978;21.464;2024-01-15T10:22:55;151.82;;;73.30;;
82705;SDS011;72428;41.978;21.464;2024-01-15T10:25:21;171.95;;;79.20;;
82705;SDS011;72428;41.978;21.464;2024-01-15T10:28:00;157.63;;;76.35;;
82705;SDS011;72428;41.978;21.464;2024-01-15T10:30:27;156.52;;;76.22;;
82705;SDS011;72428;41.978;21.464;2024-01-15T10:33:00;157.10;;;75.32;;
82705;SDS011;72428;41.978;21.464;2024-01-15T10:35:27;158.15;;;79.25;;
82705;SDS011;72428;41.978;21.464;2024-01-15T10:37:53;148.48;;;74.78;;
82705;SDS011;72428;41.978;21.464;2024-01-15T10:40:19;145.45;;;69.22;;
82705;SDS011;72428;41.978;21.464;2024-01-15T10:42:45;148.05;;;70.03;;
82705;SDS011;72428;41.978;21.464;2024-01-15T10:45:13;164.32;;;79.03;;
82705;SDS011;72428;41.978;21.464;2024-01-15T10:47:39;159.88;;;76.95;;
82705;SDS011;72428;41.978;21.464;2024-01-15T10:50:06;152.57;;;75.70;;
82705;SDS011;72428;41.978;21.464;2024-01-15T10:52:36;159.48;;;81.97;;
82705;SDS011;72428;41.978;21.464;2024-01-15T10:55:03;147.65;;;70.53;;
82705;SDS011;72428;41.978;21.464;2024-01-15T10:57:29;160.52;;;81.75;;
82705;SDS011;72428;41.978;21.464;2024-01-15T10:59:56;174.88;;;82.63;;
82705;SDS011;72428;41.978;21.464;2024-01-15T11:02:24;157.77;;;83.15;;
82705;SDS011;72428;41.978;21.464;2024-01-15T11:04:50;169.50;;;82.53;;
82705;SDS011;72428;41.978;21.464;2024-01-15T11:07:16;178.38;;;88.00;;
82705;SDS011;72428;41.978;21.464;2024-01-15T11:09:43;173.93;;;87.20;;
82705;SDS011;72428;41.978;21.464;2024-01-15T11:12:09;149.23;;;79.28;;
82705;SDS011;72428;41.978;21.464;2024-01-15T11:14:46;148.75;;;76.47;;
82705;SDS011;72428;41.978;21.464;2024-01-15T11:17:12;154.32;;;75.22;;
82705;SDS011;72428;41.978;21.464;2024-01-15T11:22:08;141.48;;;73.75;;
82705;SDS011;72428;41.978;21.464;2024-01-15T11:24:38;133.88;;;70.40;;
82705;SDS011;72428;41.978;21.464;2024-01-15T11:27:05;133.27;;;66.63;;
82705;SDS011;72428;41.978;21.464;2024-01-15T11:29:37;119.53;;;55.35;;
82705;SDS011;72428;41.978;21.464;2024-01-15T11:37:15;128.65;;;65.57;;
82705;SDS011;72428;41.978;21.464;2024-01-15T11:39:41;138.55;;;69.53;;
82705;SDS011;72428;41.978;21.464;2024-01-15T11:42:09;130.70;;;66.95;;
82705;SDS011;72428;41.978;21.464;2024-01-15T11:44:35;123.65;;;62.80;;
82705;SDS011;72428;41.978;21.464;2024-01-15T11:52:00;134.10;;;65.18;;
82705;SDS011;72428;41.978;21.464;2024-01-15T11:54:28;116.57;;;58.00;;
82705;SDS011;72428;41.978;21.464;2024-01-15T11:56:57;97.85;;;50.20;;
82705;SDS011;72428;41.978;21.464;2024-01-15T11:59:24;79.28;;;43.55;;
82705;SDS011;72428;41.978;21.464;2024-01-15T12:01:50;70.05;;;36.08;;
82705;SDS011;72428;41.978;21.464;2024-01-15T12:04:16;89.30;;;45.13;;
82705;SDS011;72428;41.978;21.464;2024-01-15T12:06:44;93.03;;;48.55;;
82705;SDS011;72428;41.978;21.464;2024-01-15T12:09:10;93.68;;;46.15;;
82705;SDS011;72428;41.978;21.464;2024-01-15T12:11:36;92.25;;;46.42;;
82705;SDS011;72428;41.978;21.464;2024-01-15T12:14:04;96.28;;;48.72;;
82705;SDS011;72428;41.978;21.464;2024-01-15T12:16:31;95.05;;;50.45;;
82705;SDS011;72428;41.978;21.464;2024-01-15T12:18:57;99.53;;;51.30;;
82705;SDS011;72428;41.978;21.464;2024-01-15T12:21:23;95.60;;;46.45;;
82705;SDS011;72428;41.978;21.464;2024-01-15T12:23:52;90.53;;;47.58;;
82705;SDS011;72428;41.978;21.464;2024-01-15T12:26:19;95.80;;;48.03;;
82705;SDS011;72428;41.978;21.464;2024-01-15T12:28:45;94.97;;;44.50;;
82705;SDS011;72428;41.978;21.464;2024-01-15T12:31:11;89.68;;;45.03;;
82705;SDS011;72428;41.978;21.464;2024-01-15T12:33:38;92.45;;;48.13;;
82705;SDS011;72428;41.978;21.464;2024-01-15T12:36:04;91.80;;;44.28;;
82705;SDS011;72428;41.978;21.464;2024-01-15T12:38:31;70.60;;;36.28;;
82705;SDS011;72428;41.978;21.464;2024-01-15T12:40:57;64.88;;;35.00;;
82705;SDS011;72428;41.978;21.464;2024-01-15T12:43:23;65.53;;;33.78;;
82705;SDS011;72428;41.978;21.464;2024-01-15T12:45:50;64.55;;;33.28;;
82705;SDS011;72428;41.978;21.464;2024-01-15T12:48:16;67.35;;;35.03;;
82705;SDS011;72428;41.978;21.464;2024-01-15T12:50:42;69.45;;;37.45;;
82705;SDS011;72428;41.978;21.464;2024-01-15T12:53:10;73.07;;;36.30;;
82705;SDS011;72428;41.978;21.464;2024-01-15T12:55:36;69.55;;;38.17;;
82705;SDS011;72428;41.978;21.464;2024-01-15T12:58:02;68.90;;;35.20;;
82705;SDS011;72428;41.978;21.464;2024-01-15T13:00:29;68.22;;;36.97;;
82705;SDS011;72428;41.978;21.464;2024-01-15T13:02:55;70.20;;;36.28;;
82705;SDS011;72428;41.978;21.464;2024-01-15T13:05:22;84.97;;;38.97;;
82705;SDS011;72428;41.978;21.464;2024-01-15T13:07:49;64.43;;;36.40;;
82705;SDS011;72428;41.978;21.464;2024-01-15T13:10:15;73.68;;;35.63;;
82705;SDS011;72428;41.978;21.464;2024-01-15T13:12:41;76.75;;;37.00;;
82705;SDS011;72428;41.978;21.464;2024-01-15T13:15:07;76.47;;;40.13;;
82705;SDS011;72428;41.978;21.464;2024-01-15T13:17:37;75.72;;;38.97;;
82705;SDS011;72428;41.978;21.464;2024-01-15T13:20:04;66.32;;;37.47;;
82705;SDS011;72428;41.978;21.464;2024-01-15T13:22:31;69.85;;;37.72;;
82705;SDS011;72428;41.978;21.464;2024-01-15T13:24:57;67.88;;;37.10;;
82705;SDS011;72428;41.978;21.464;2024-01-15T13:27:23;73.78;;;37.72;;
82705;SDS011;72428;41.978;21.464;2024-01-15T13:29:50;64.55;;;38.28;;
82705;SDS011;72428;41.978;21.464;2024-01-15T13:32:17;71.22;;;38.85;;
82705;SDS011;72428;41.978;21.464;2024-01-15T13:34:48;79.82;;;37.97;;
82705;SDS011;72428;41.978;21.464;2024-01-15T13:37:14;78.10;;;37.72;;
82705;SDS011;72428;41.978;21.464;2024-01-15T13:39:40;70.00;;;38.13;;
82705;SDS011;72428;41.978;21.464;2024-01-15T13:42:06;65.97;;;33.83;;
82705;SDS011;72428;41.978;21.464;2024-01-15T13:44:32;59.50;;;34.38;;
82705;SDS011;72428;41.978;21.464;2024-01-15T13:46:58;60.20;;;31.92;;
82705;SDS011;72428;41.978;21.464;2024-01-15T13:49:25;59.83;;;31.83;;
82705;SDS011;72428;41.978;21.464;2024-01-15T13:51:51;62.50;;;32.65;;
82705;SDS011;72428;41.978;21.464;2024-01-15T13:54:17;63.00;;;31.85;;
82705;SDS011;72428;41.978;21.464;2024-01-15T13:56:45;66.68;;;31.55;;
82705;SDS011;72428;41.978;21.464;2024-01-15T13:59:12;59.92;;;31.33;;
82705;SDS011;72428;41.978;21.464;2024-01-15T14:01:38;55.75;;;28.60;;
82705;SDS011;72428;41.978;21.464;2024-01-15T14:04:04;48.85;;;27.10;;